Naples Municipal Airport
KAPF : now visible

Airfield :











YOU CAN JOIN US ON...

 
LOGIN :

Register | Disclaimer

   EN    FR    IT 

 









Legend :    VFR   Marginal VFR   IFR   Intensive IFR   Very Intensive IFR
Visi :
Ceiling :
>= 8 km
>= 3000ft
5 to 8 km
1000 to 3000 ft
1500m to 5 km
500 to 1000 ft
800 to 1500m
200 to 500 ft
< 800m
< 200 ft
Symbols :   Thunderstorms  Fog  Heavy snow  Heavy precipitations  Wind > 20 kt






- Airport Elevation : 8 ft


KAPF - Naples Municipal

CURRENT METAR :
  • 230753Z AUTO 07007KT 10SM OVC070 25/23 A2998 RMK AO2 RAB18E28 SLP149 P0000 T02500228

EXPIRED METARs :
  • 230653Z AUTO 06005KT 10SM BKN070 OVC095 26/22 A2998 RMK AO2 SLP151 T02560222
  • 230553Z AUTO 05004KT 10SM BKN075 OVC090 26/22 A2998 RMK AO2 SLP152 T02610222 10300 20256 50001
  • 230453Z AUTO 10005KT 10SM FEW055 OVC075 26/22 A2999 RMK AO2 SLP155 T02560222 403280222
  • 230353Z AUTO 10010KT 10SM BKN055 OVC070 26/23 A3000 RMK AO2 SLP157 T02610228
  • 230253Z AUTO 11008KT 10SM SCT041 BKN060 OVC080 27/23 A2998 RMK AO2 SLP151 T02670233 53022

TAF KAPF
Valid from the 23 at 06:00 until the 24 at 06:00 UTC


230520Z 2306/2406 VRB04KT P6SM FEW030
FM231500 10007KT P6SM FEW030
FM231700 24010KT P6SM SCT030
FM240200 VRB04KT P6SM FEW030
KZMA FIR / North America



MET'MAP, your aeronautical weather chart ! - Copyright ORBIFLY December 2007 - Disclaimer

ORBIFLY MET'MAP TEAM :

Programming & Development : Alexandra Zaïnal
Original concept : Baudouin d'Aumeries
Technical & hardware support : Manuel Goepfert
Assistance : Marc-Olivier Méhu




SOURCES & CREDITS :

   NOAA       Earth
Advisory